Terminal Aerodrome Forecast
Issued by NWS

Home | Current Version | Previous Version | Text Only | Print | Product List | Glossary On
Versions: 1 2 3 4 5 6 7 8 9 10 11 12
600
FTUS42 KMHX 122330
TAFPGV
TAF
KPGV 122330Z 1300/1324 30010G17KT P6SM BKN060
     FM130200 31015G24KT P6SM SCT070
     FM131800 27011KT P6SM SKC
      AMD LTD TO CLD VIS AND WIND=

USA.gov is the U.S. government's official web portal to all federal, state and local government web resources and services.